Accueil
METAR-TAF:

METAR-TAF

Aéroports :

Harare, Zimbabwe

Aéroport international d'Harare

latitude: 17-55S, longitude: 031-08E, altitude: 1479 m

Observation

Le bulletin a été fait il y a 2 heures et 13 minutes, à 13:00 UTC
Vent 11 kt de est/nord-est, variant entre nord/nord-est et est/sud-est
Température 28°C
Humidité 32%
Pression 1023 hPa
Visibilité: 5000 m

METAR: FVHA 191300Z 06011KT 030V110 5000 // NSC 28/10 Q1023 NOSIG

Heure: 17:13 (15:13 UTC)

Prévision

Le bulletin a été fait il y a 5 heures et 13 minutes, à 10:00 UTC
Prévision valable du 19 à 12 UTC au 20 à 18 UTC
Vent 10 kt de est/nord-est
Visibilité: 5000 m
brume sèche
A partir de 19 à 1400 UTC
Visibilité: 8000 m

TAF: FVHA 191000Z 1912/2018 07010KT 5000 HZ NSC FM191400 /////KT 8000 NSC

Observations et prévisions météorologiques de plus de 4000 aéroports (messages METAR et TAF).

Les stations disponibles sont représentées par des disques jaunes et rouges sur la carte.

Passer la souris dessus pour voir le nom de la station.

Cliquer dessus pour voir les observations et prévisions météorologiques.

Pour changer de carte: cliquez sur les boutons verts avec une croix noire pour zoomer, sur le bouton vert avec un tiret pour effectuer un zoom arrière, ou sur les flèches vertes pour les cartes adjacentes.


METAR-TAF: